This is the latest recevied weather packets stored in our database for station/object WC4PEM-8. If no packets are shown the sender has not sent any weather packets the latest 10 day(s).
| Time | Temp. | Humidity | Pressure | Rain* | Wind** | Luminosity | Snow |
|---|---|---|---|---|---|---|---|
| 1778077279 | 25.56° C | 79% | 1017.1 hPa | 0 mm | - | - | - |
| 1778077254 | 26.67° C | 70% | 1017.2 hPa | 0 mm | - | - | - |
| 1778077224 | 25.56° C | 79% | 1017.1 hPa | 0 mm | - | - | - |
| 1778077170 | 25.56° C | 79% | 1017.1 hPa | 0 mm | - | - | - |
| 1778077120 | 25.56° C | 79% | 1017.1 hPa | 0 mm | - | - | - |
| 1778077089 | 26.67° C | 72% | 1017.2 hPa | 0 mm | - | - | - |
| 1778077088 | 25.56° C | 79% | 1017.1 hPa | 0 mm | - | - | - |
| 1778076954 | 26.67° C | 72% | 1017.2 hPa | 0 mm | - | - | - |
| 1778076789 | 26.67° C | 73% | 1017.2 hPa | 0 mm | - | - | - |
| 1778076654 | 26.67° C | 73% | 1017.2 hPa | 0 mm | - | - | - |
| 1778076354 | 26.11° C | 74% | 1017.3 hPa | 0 mm | - | - | - |
| 1778076186 | 26.11° C | 75% | 1017.3 hPa | 0 mm | - | - | - |
| 1778076117 | 26.11° C | 75% | 1017.3 hPa | 0 mm | - | - | - |
| 1778076054 | 26.11° C | 75% | 1017.3 hPa | 0 mm | - | - | - |
| 1778075754 | 25.56° C | 77% | 1017.2 hPa | 0 mm | - | - | - |
| 1778075497 | 25.56° C | 79% | 1017.1 hPa | 0 mm | - | - | - |
| 1778075454 | 25.56° C | 79% | 1017.1 hPa | 0 mm | - | - | - |
| 1778075154 | 25.56° C | 78% | 1017.1 hPa | 0 mm | - | - | - |
| 1778074937 | 25° C | 80% | 1017.1 hPa | 0 mm | - | - | - |
| 1778074854 | 25° C | 80% | 1017.1 hPa | 0 mm | - | - | - |
| 1778074797 | 24.44° C | 81% | 1017.1 hPa | 0 mm | - | - | - |
| 1778074554 | 25° C | 81% | 1017.1 hPa | 0 mm | - | - | - |
| 1778074289 | 24.44° C | 81% | 1017.1 hPa | 0 mm | - | - | - |
| 1778074254 | 24.44° C | 81% | 1017.1 hPa | 0 mm | - | - | - |
| 1778074042 | 24.44° C | 81% | 1017.1 hPa | 0 mm | - | - | - |
* Rain latest hour (hover to see other rain measurements)
** Current wind speed in m/s (hover to see current wind gust speed)